Time;durP1;ratioP1;P1;durP2;ratioP2;P2;SDS_P1;SDS_P2;PMS_P1;PMS_P2;Temp;Humidity;BMP_temperature;BMP_pressure;BME280_temperature;BME280_humidity;BME280_pressure;Samples;Min_cycle;Max_cycle;Signal;HPM_P1;HPM_P2
2022/10/23 00:01:25;;;;;;;;;;;;;;;13.18;80.23;98383.81;7390154;19;20285;-78
2022/10/23 00:04:01;;;;;;;;;;;;;;;13.21;80.41;98379.16;7390774;19;19935;-78
2022/10/23 00:06:28;;;;;;;;;;;;;;;13.26;80.24;98374.16;7387864;19;19918;-79
2022/10/23 00:08:55;;;;;;;;;;;;;;;13.20;80.30;98369.53;7389831;19;20260;-78
2022/10/23 00:11:24;;;;;;;;;;;;;;;13.14;80.38;98361.25;7389159;19;19919;-77
2022/10/23 00:13:53;;;;;;;;;;;;;;;13.06;80.35;98358.63;7389172;19;19922;-78
2022/10/23 00:16:20;;;;;;;;;;;;;;;13.06;80.50;98353.31;7386064;19;19958;-77
2022/10/23 00:18:46;;;;;;;;;;;;;;;13.04;80.57;98343.88;7386821;19;19914;-77
2022/10/23 00:21:14;;;;;;;;;;;;;;;13.03;80.42;98350.16;7387732;19;19919;-77
2022/10/23 00:23:40;;;;;;;;;;;;;;;13.03;80.46;98342.19;7388069;19;19919;-77
2022/10/23 00:26:07;;;;;;;;;;;;;;;13.04;80.39;98344.69;7388701;19;20268;-77
2022/10/23 00:28:33;;;;;;;;;;;;;;;13.06;80.53;98342.69;7386084;19;19957;-78
2022/10/23 00:31:01;;;;;;;;;;;;;;;13.12;80.06;98351.81;7382903;19;19918;-78
2022/10/23 00:33:27;;;;;;;;;;;;;;;13.07;79.85;98354.97;7388081;19;19923;-78
2022/10/23 00:35:54;;;;;;;;;;;;;;;13.00;80.07;98356.66;7385327;19;19922;-77
2022/10/23 00:38:20;;;;;;;;;;;;;;;12.95;79.96;98356.31;7386083;19;19935;-78
2022/10/23 00:40:47;;;;;;;;;;;;;;;12.88;80.12;98355.38;7382543;19;19931;-77
2022/10/23 00:43:34;;;;;;;;;;;;;;;12.85;80.27;98345.94;7385572;19;19936;-77
2022/10/23 00:46:00;;;;;;;;;;;;;;;12.86;80.64;98350.22;7385130;19;19919;-77
2022/10/23 00:48:27;;;;;;;;;;;;;;;12.84;80.96;98351.41;7387933;19;20383;-77
2022/10/23 00:50:54;;;;;;;;;;;;;;;12.91;80.78;98360.34;7386622;19;19947;-77
2022/10/23 00:53:20;;;;;;;;;;;;;;;12.92;81.03;98357.50;7386860;19;19922;-77
2022/10/23 00:55:48;;;;;;;;;;;;;;;12.95;80.69;98362.50;7385124;19;19953;-78
2022/10/23 00:58:17;;;;;;;;;;;;;;;12.91;80.29;98352.38;7384039;19;19915;-77
2022/10/23 01:00:46;;;;;;;;;;;;;;;12.84;80.04;98352.22;7384742;19;19918;-77
2022/10/23 01:03:13;;;;;;;;;;;;;;;12.73;80.09;98345.44;7385984;19;19923;-78
2022/10/23 01:05:51;;;;;;;;;;;;;;;12.72;80.22;98345.63;7387357;19;19967;-78
2022/10/23 01:08:23;;;;;;;;;;;;;;;12.72;80.45;98333.19;7385824;19;19915;-77
2022/10/23 01:10:55;;;;;;;;;;;;;;;12.65;80.25;98345.47;7382941;19;19929;-77
2022/10/23 01:13:34;;;;;;;;;;;;;;;12.46;80.09;98343.19;7385774;19;20339;-77
2022/10/23 01:16:06;;;;;;;;;;;;;;;12.28;80.36;98349.50;7385048;19;19952;-77
2022/10/23 01:18:41;;;;;;;;;;;;;;;12.16;80.52;98337.56;7392807;19;20639;-78
2022/10/23 01:21:09;;;;;;;;;;;;;;;12.17;80.84;98341.06;7390560;19;19918;-77
2022/10/23 01:23:45;;;;;;;;;;;;;;;12.16;80.82;98342.88;7392270;19;19925;-78
2022/10/23 01:26:14;;;;;;;;;;;;;;;12.22;81.09;98346.72;7390890;19;19926;-77
2022/10/23 01:28:49;;;;;;;;;;;;;;;12.31;81.37;98335.09;7393598;19;19922;-77
2022/10/23 01:31:20;;;;;;;;;;;;;;;12.37;81.23;98328.28;7392387;19;19927;-77
2022/10/23 01:33:47;;;;;;;;;;;;;;;12.36;81.20;98330.09;7388123;19;19922;-77
2022/10/23 01:36:22;;;;;;;;;;;;;;;12.42;81.27;98325.94;7389774;19;20658;-77
2022/10/23 01:38:55;;;;;;;;;;;;;;;12.47;81.35;98323.63;7392493;19;19952;-77
2022/10/23 01:41:33;;;;;;;;;;;;;;;12.43;81.03;98314.34;7390707;19;20338;-77
2022/10/23 01:44:02;;;;;;;;;;;;;;;12.39;81.24;98319.16;7388583;19;19915;-76
2022/10/23 01:46:34;;;;;;;;;;;;;;;12.47;81.08;98320.97;7387993;19;19938;-77
2022/10/23 01:49:01;;;;;;;;;;;;;;;12.44;81.11;98310.69;7389193;19;19986;-76
2022/10/23 01:51:28;;;;;;;;;;;;;;;12.43;80.89;98307.22;7389916;19;20379;-77
2022/10/23 01:54:00;;;;;;;;;;;;;;;12.36;80.63;98302.75;7390604;19;19927;-76
2022/10/23 01:56:31;;;;;;;;;;;;;;;12.27;80.57;98310.72;7388528;19;19911;-76
2022/10/23 01:58:58;;;;;;;;;;;;;;;12.17;80.44;98310.06;7388948;19;19922;-76
2022/10/23 02:01:29;;;;;;;;;;;;;;;12.18;80.69;98309.06;7391115;19;19927;-76
2022/10/23 02:03:56;;;;;;;;;;;;;;;12.14;80.78;98307.75;7387870;19;19947;-77
2022/10/23 02:06:24;;;;;;;;;;;;;;;12.05;80.77;98309.56;7386686;19;19932;-77
2022/10/23 02:08:51;;;;;;;;;;;;;;;12.04;80.73;98310.56;7391086;19;19914;-77
2022/10/23 02:11:19;;;;;;;;;;;;;;;11.99;80.72;98304.13;7389452;19;19923;-76
2022/10/23 02:14:00;;;;;;;;;;;;;;;12.02;80.92;98301.94;7388434;19;19939;-76
2022/10/23 02:16:30;;;;;;;;;;;;;;;12.04;81.06;98289.38;7384642;19;19956;-76
2022/10/23 02:19:03;;;;;;;;;;;;;;;12.06;81.00;98294.50;7389472;19;19974;-76
2022/10/23 02:21:49;;;;;;;;;;;;;;;12.03;80.98;98289.50;7389925;19;19922;-77
2022/10/23 02:24:18;;;;;;;;;;;;;;;12.00;81.28;98287.19;7392389;19;19947;-77
2022/10/23 02:26:49;;;;;;;;;;;;;;;12.03;81.60;98287.72;7384475;19;19930;-77
2022/10/23 02:29:17;;;;;;;;;;;;;;;12.12;81.63;98279.75;7390582;19;19969;-77
2022/10/23 02:31:45;;;;;;;;;;;;;;;12.21;81.66;98278.72;7392030;19;19914;-76
2022/10/23 02:34:12;;;;;;;;;;;;;;;12.21;81.67;98268.94;7392690;19;19939;-75
2022/10/23 02:36:38;;;;;;;;;;;;;;;12.28;81.49;98275.22;7389590;19;19944;-76
2022/10/23 02:39:06;;;;;;;;;;;;;;;12.38;81.32;98275.06;7393049;19;20366;-76
2022/10/23 02:41:54;;;;;;;;;;;;;;;12.43;81.34;98277.22;7389143;19;19986;-76
2022/10/23 02:44:27;;;;;;;;;;;;;;;12.43;81.04;98272.72;7386000;19;19922;-76
2022/10/23 02:47:06;;;;;;;;;;;;;;;12.42;80.82;98271.06;7386600;19;20489;-76
2022/10/23 02:49:35;;;;;;;;;;;;;;;12.44;81.05;98261.09;7387503;19;19940;-76
2022/10/23 02:52:28;;;;;;;;;;;;;;;12.47;81.06;98254.63;7388486;19;19929;-76
2022/10/23 02:55:14;;;;;;;;;;;;;;;12.47;81.14;98257.28;7385117;19;19914;-76
2022/10/23 02:57:56;;;;;;;;;;;;;;;12.56;81.08;98255.41;7383416;19;19914;-76
2022/10/23 03:00:23;;;;;;;;;;;;;;;12.56;80.77;98260.72;7389082;19;20663;-76
2022/10/23 03:02:49;;;;;;;;;;;;;;;12.54;80.86;98263.56;7388186;19;19918;-76
2022/10/23 03:05:19;;;;;;;;;;;;;;;12.54;80.66;98258.25;7387496;19;20270;-76
2022/10/23 03:07:47;;;;;;;;;;;;;;;12.60;80.53;98248.78;7383076;19;19923;-77
2022/10/23 03:10:15;;;;;;;;;;;;;;;12.56;80.24;98258.06;7387439;19;19919;-77
2022/10/23 03:12:42;;;;;;;;;;;;;;;12.53;80.15;98245.97;7384961;19;19923;-76
2022/10/23 03:15:10;;;;;;;;;;;;;;;12.49;79.95;98250.81;7386360;19;19950;-76
2022/10/23 03:17:36;;;;;;;;;;;;;;;12.49;80.08;98242.03;7386565;19;19944;-76
2022/10/23 03:20:04;;;;;;;;;;;;;;;12.47;80.23;98241.34;7388007;19;20454;-76
2022/10/23 03:22:31;;;;;;;;;;;;;;;12.42;80.37;98238.38;7387380;19;19915;-77
2022/10/23 03:24:58;;;;;;;;;;;;;;;12.42;80.26;98241.03;7387215;19;19925;-77
2022/10/23 03:27:27;;;;;;;;;;;;;;;12.37;80.19;98246.03;7384241;19;20609;-77
2022/10/23 03:30:15;;;;;;;;;;;;;;;12.33;80.23;98236.78;7386494;19;20278;-76
2022/10/23 03:32:42;;;;;;;;;;;;;;;12.30;80.27;98237.94;7390325;19;19925;-77
2022/10/23 03:35:09;;;;;;;;;;;;;;;12.25;80.47;98233.13;7389026;19;19922;-76
2022/10/23 03:37:36;;;;;;;;;;;;;;;12.25;80.52;98230.47;7386468;19;20267;-77
2022/10/23 03:40:03;;;;;;;;;;;;;;;12.19;80.61;98231.19;7384064;19;20294;-77
2022/10/23 03:42:33;;;;;;;;;;;;;;;12.21;80.68;98229.16;7386898;19;20379;-76
2022/10/23 03:44:59;;;;;;;;;;;;;;;12.22;80.65;98225.53;7388537;19;19926;-76
2022/10/23 03:47:26;;;;;;;;;;;;;;;12.22;80.65;98225.53;7384327;19;19922;-77
2022/10/23 03:49:53;;;;;;;;;;;;;;;12.25;80.85;98232.31;7385795;19;19930;-77
2022/10/23 03:52:21;;;;;;;;;;;;;;;12.29;80.70;98223.81;7385822;19;19947;-76
2022/10/23 03:55:10;;;;;;;;;;;;;;;12.19;81.13;98217.06;7384085;19;19910;-77
2022/10/23 03:57:37;;;;;;;;;;;;;;;12.24;80.78;98225.34;7383373;19;19922;-77
2022/10/23 04:00:05;;;;;;;;;;;;;;;12.22;80.72;98217.56;7385736;19;19922;-77
2022/10/23 04:02:41;;;;;;;;;;;;;;;12.23;80.47;98221.88;7386129;19;19918;-75
2022/10/23 04:05:09;;;;;;;;;;;;;;;12.19;80.55;98217.91;7388171;19;19923;-75
2022/10/23 04:07:37;;;;;;;;;;;;;;;12.15;80.59;98223.72;7385259;19;19930;-77
2022/10/23 04:10:04;;;;;;;;;;;;;;;12.10;80.65;98221.56;7380928;19;20690;-76
2022/10/23 04:12:31;;;;;;;;;;;;;;;12.10;80.79;98224.22;7382832;19;19921;-76
2022/10/23 04:14:58;;;;;;;;;;;;;;;12.16;80.97;98223.53;7386836;19;19933;-77
2022/10/23 04:17:24;;;;;;;;;;;;;;;12.23;81.17;98234.31;7381491;19;19947;-77
2022/10/23 04:19:51;;;;;;;;;;;;;;;12.24;80.91;98228.00;7383198;19;21896;-77
2022/10/23 04:22:17;;;;;;;;;;;;;;;12.31;80.77;98234.28;7384705;19;19953;-77
2022/10/23 04:24:45;;;;;;;;;;;;;;;12.39;80.77;98220.16;7386821;19;19922;-77
2022/10/23 04:27:16;;;;;;;;;;;;;;;12.44;80.55;98231.09;7382022;19;19922;-77
2022/10/23 04:29:43;;;;;;;;;;;;;;;12.45;79.99;98228.28;7380074;19;20247;-77
2022/10/23 04:32:10;;;;;;;;;;;;;;;12.36;79.83;98233.78;7383137;19;19942;-77
2022/10/23 04:34:36;;;;;;;;;;;;;;;12.19;79.48;98233.81;7384910;19;20280;-77
2022/10/23 04:37:03;;;;;;;;;;;;;;;12.06;79.53;98225.56;7381283;19;19941;-77
2022/10/23 04:39:29;;;;;;;;;;;;;;;12.02;79.84;98237.50;7382761;19;20404;-76
2022/10/23 04:41:56;;;;;;;;;;;;;;;11.97;80.00;98232.69;7382291;19;19918;-77
2022/10/23 04:44:23;;;;;;;;;;;;;;;11.93;79.96;98227.88;7385885;19;19939;-76
2022/10/23 04:46:50;;;;;;;;;;;;;;;11.93;80.39;98227.88;7383195;19;19922;-76
2022/10/23 04:49:17;;;;;;;;;;;;;;;11.98;80.69;98231.72;7384131;19;19960;-77
2022/10/23 04:52:18;;;;;;;;;;;;;;;12.04;80.60;98224.91;7389096;19;19921;-76
2022/10/23 04:55:11;;;;;;;;;;;;;;;12.10;80.40;98229.53;7393223;19;20342;-76
2022/10/23 04:57:42;;;;;;;;;;;;;;;12.03;80.14;98236.47;7387197;19;19926;-77
2022/10/23 05:00:11;;;;;;;;;;;;;;;12.05;80.13;98230.03;7391304;19;19939;-76
2022/10/23 05:02:42;;;;;;;;;;;;;;;12.12;80.44;98226.72;7390179;19;19915;-77
2022/10/23 05:05:12;;;;;;;;;;;;;;;12.22;80.33;98233.47;7390694;19;19926;-77
2022/10/23 05:07:59;;;;;;;;;;;;;;;12.20;80.14;98224.88;7391402;19;19992;-76
2022/10/23 05:10:58;;;;;;;;;;;;;;;12.13;80.16;98231.00;7388189;19;19938;-76
2022/10/23 05:13:25;;;;;;;;;;;;;;;12.15;80.41;98232.50;7388997;19;19956;-77
2022/10/23 05:15:51;;;;;;;;;;;;;;;12.18;80.56;98234.81;7392710;19;19944;-77
2022/10/23 05:18:35;;;;;;;;;;;;;;;12.15;80.65;98219.25;7391421;19;19951;-77
2022/10/23 05:21:06;;;;;;;;;;;;;;;12.20;80.45;98221.38;7389415;19;19923;-77
2022/10/23 05:23:33;;;;;;;;;;;;;;;12.20;80.33;98216.91;7391336;19;19926;-77
2022/10/23 05:26:02;;;;;;;;;;;;;;;12.18;80.54;98221.53;7388582;19;19918;-77
2022/10/23 05:28:30;;;;;;;;;;;;;;;12.11;80.58;98212.59;7389134;19;19951;-77
2022/10/23 05:30:57;;;;;;;;;;;;;;;12.13;80.67;98213.25;7392760;19;20252;-77
2022/10/23 05:33:26;;;;;;;;;;;;;;;12.13;80.57;98210.63;7390467;19;19959;-77
2022/10/23 05:35:52;;;;;;;;;;;;;;;12.11;80.53;98206.47;7386873;19;19907;-76
2022/10/23 05:38:20;;;;;;;;;;;;;;;12.14;80.63;98211.44;7390627;19;20285;-77
2022/10/23 05:40:49;;;;;;;;;;;;;;;12.15;80.87;98205.97;7391777;19;20268;-77
2022/10/23 05:43:17;;;;;;;;;;;;;;;12.22;80.94;98204.31;7386947;19;20017;-77
2022/10/23 05:46:07;;;;;;;;;;;;;;;12.38;80.66;98210.56;7389234;19;19919;-78
2022/10/23 05:48:48;;;;;;;;;;;;;;;12.42;80.50;98198.59;7391820;19;19993;-76
2022/10/23 05:51:37;;;;;;;;;;;;;;;12.41;80.43;98196.94;7389918;19;19918;-76
2022/10/23 05:54:26;;;;;;;;;;;;;;;12.36;80.54;98196.63;7388232;19;19950;-76
2022/10/23 05:57:13;;;;;;;;;;;;;;;12.35;80.58;98190.50;7388281;19;19934;-75
2022/10/23 05:59:43;;;;;;;;;;;;;;;12.34;80.64;98188.00;7383940;19;19914;-77
2022/10/23 06:02:29;;;;;;;;;;;;;;;12.37;80.47;98191.13;7389384;19;19926;-76
2022/10/23 06:05:05;;;;;;;;;;;;;;;12.43;80.46;98189.66;7394511;19;20342;-76
2022/10/23 06:07:58;;;;;;;;;;;;;;;12.43;80.30;98179.03;7390910;19;19978;-78
2022/10/23 06:10:25;;;;;;;;;;;;;;;12.41;80.39;98178.38;7392411;19;19967;-78
2022/10/23 06:12:54;;;;;;;;;;;;;;;12.47;80.33;98183.81;7396143;19;19935;-79
2022/10/23 06:15:20;;;;;;;;;;;;;;;12.50;80.26;98182.63;7393163;19;19910;-78
2022/10/23 06:18:10;;;;;;;;;;;;;;;12.54;80.33;98180.47;7404162;19;19919;-78
2022/10/23 06:20:47;;;;;;;;;;;;;;;12.62;80.33;98183.91;7396300;19;21287;-78
2022/10/23 06:23:22;;;;;;;;;;;;;;;12.72;80.06;98183.72;7392699;19;20265;-79
2022/10/23 06:26:08;;;;;;;;;;;;;;;12.77;80.12;98177.88;7394101;19;20345;-77
2022/10/23 06:28:46;;;;;;;;;;;;;;;12.84;79.89;98176.16;7390185;19;19922;-77
2022/10/23 06:31:13;;;;;;;;;;;;;;;12.86;79.94;98177.66;7386923;19;19919;-76
2022/10/23 06:33:40;;;;;;;;;;;;;;;12.85;79.71;98178.66;7389928;19;20330;-77
2022/10/23 06:36:09;;;;;;;;;;;;;;;12.85;79.88;98178.66;7385698;19;20266;-76
2022/10/23 06:38:39;;;;;;;;;;;;;;;12.94;79.32;98179.44;7387109;19;19970;-76
2022/10/23 06:41:10;;;;;;;;;;;;;;;12.98;79.31;98180.75;7388113;19;20440;-76
2022/10/23 06:43:37;;;;;;;;;;;;;;;13.02;78.98;98181.22;7388774;19;19907;-76
2022/10/23 06:46:22;;;;;;;;;;;;;;;13.02;78.96;98176.72;7384424;19;19914;-76
2022/10/23 06:49:15;;;;;;;;;;;;;;;13.00;79.15;98172.59;7388392;19;19922;-76
2022/10/23 06:51:47;;;;;;;;;;;;;;;12.94;79.21;98172.28;7387344;19;19925;-77
2022/10/23 06:54:15;;;;;;;;;;;;;;;12.94;79.44;98169.63;7390501;19;19922;-77
2022/10/23 06:57:01;;;;;;;;;;;;;;;13.00;79.54;98168.09;7387705;19;19934;-77
2022/10/23 06:59:37;;;;;;;;;;;;;;;13.06;79.53;98170.06;7386411;19;19919;-77
2022/10/23 07:02:05;;;;;;;;;;;;;;;13.18;79.18;98170.47;7389420;19;19925;-76
2022/10/23 07:04:32;;;;;;;;;;;;;;;13.22;79.09;98165.63;7390350;19;19914;-77
2022/10/23 07:07:00;;;;;;;;;;;;;;;13.22;78.98;98169.13;7384229;19;19911;-77
2022/10/23 07:09:36;;;;;;;;;;;;;;;13.25;79.10;98167.94;7389150;19;19923;-78
2022/10/23 07:12:24;;;;;;;;;;;;;;;13.32;79.06;98168.91;7388914;19;20234;-77
2022/10/23 07:15:11;;;;;;;;;;;;;;;13.39;79.26;98161.88;7389346;19;19924;-77
2022/10/23 07:17:37;;;;;;;;;;;;;;;13.48;79.20;98167.94;7385375;19;19995;-76
2022/10/23 07:20:04;;;;;;;;;;;;;;;13.50;79.00;98174.72;7385420;19;19922;-77
2022/10/23 07:22:32;;;;;;;;;;;;;;;13.54;78.77;98172.56;7382903;19;19943;-77
2022/10/23 07:25:09;;;;;;;;;;;;;;;13.67;78.46;98161.31;7383740;19;20552;-78
2022/10/23 07:27:37;;;;;;;;;;;;;;;13.69;78.39;98164.59;7386081;19;19919;-77
2022/10/23 07:30:06;;;;;;;;;;;;;;;13.71;78.32;98162.59;7388684;19;19926;-77
2022/10/23 07:32:41;;;;;;;;;;;;;;;13.78;78.09;98166.19;7381463;19;19922;-77
2022/10/23 07:35:26;;;;;;;;;;;;;;;13.87;77.97;98165.06;7389986;19;19921;-78
2022/10/23 07:38:03;;;;;;;;;;;;;;;13.92;77.87;98162.69;7385549;19;19915;-76
2022/10/23 07:40:33;;;;;;;;;;;;;;;13.97;77.80;98162.16;7382932;19;20342;-76
2022/10/23 07:43:01;;;;;;;;;;;;;;;13.88;77.36;98172.06;7387762;19;19930;-77
2022/10/23 07:45:29;;;;;;;;;;;;;;;13.83;77.46;98172.59;7390745;19;19914;-78
2022/10/23 07:48:00;;;;;;;;;;;;;;;13.91;77.35;98182.34;7386035;19;19911;-76
2022/10/23 07:50:45;;;;;;;;;;;;;;;13.96;77.35;98181.78;7384359;19;20493;-76
2022/10/23 07:53:23;;;;;;;;;;;;;;;13.98;77.24;98174.44;7391590;19;19918;-76
2022/10/23 07:55:56;;;;;;;;;;;;;;;14.07;76.83;98185.84;7383668;19;19960;-76
2022/10/23 07:58:25;;;;;;;;;;;;;;;14.15;76.30;98183.91;7387477;19;19926;-76
2022/10/23 08:01:05;;;;;;;;;;;;;;;14.28;76.17;98183.28;7389804;19;19934;-77
2022/10/23 08:03:36;;;;;;;;;;;;;;;14.35;75.88;98186.84;7386914;19;19951;-76
2022/10/23 08:06:04;;;;;;;;;;;;;;;14.37;76.18;98181.34;7383784;19;19930;-76
2022/10/23 08:08:32;;;;;;;;;;;;;;;14.42;76.93;98174.44;7388765;19;20275;-75
2022/10/23 08:11:02;;;;;;;;;;;;;;;14.53;76.93;98175.00;7386046;19;19933;-77
2022/10/23 08:13:43;;;;;;;;;;;;;;;14.63;76.16;98179.03;7382045;19;20774;-76
2022/10/23 08:16:17;;;;;;;;;;;;;;;14.67;76.53;98177.66;7387333;19;19929;-75
2022/10/23 08:19:04;;;;;;;;;;;;;;;14.85;76.29;98169.28;7390057;19;19930;-76
2022/10/23 08:21:33;;;;;;;;;;;;;;;14.96;76.38;98169.78;7384615;19;19923;-77
2022/10/23 08:24:01;;;;;;;;;;;;;;;15.08;76.20;98165.59;7384989;19;19923;-76
2022/10/23 08:26:28;;;;;;;;;;;;;;;15.18;76.27;98157.31;7399930;19;19943;-77
2022/10/23 08:29:00;;;;;;;;;;;;;;;15.25;76.04;98164.34;7399806;19;19923;-76
2022/10/23 08:31:28;;;;;;;;;;;;;;;15.44;76.03;98154.06;7400144;19;19929;-76
2022/10/23 08:34:22;;;;;;;;;;;;;;;15.61;75.83;98150.06;7398390;19;19929;-76
2022/10/23 08:36:51;;;;;;;;;;;;;;;15.74;75.88;98152.06;7401623;19;19936;-76
2022/10/23 08:39:17;;;;;;;;;;;;;;;15.85;75.80;98140.03;7400341;19;19915;-76
2022/10/23 08:42:00;;;;;;;;;;;;;;;15.92;75.67;98132.91;7401983;19;19938;-76
2022/10/23 08:44:30;;;;;;;;;;;;;;;16.00;74.98;98136.22;7398920;19;19926;-76
2022/10/23 08:46:58;;;;;;;;;;;;;;;16.04;74.61;98136.66;7399231;19;19919;-76
2022/10/23 08:49:45;;;;;;;;;;;;;;;16.01;74.97;98124.53;7402390;19;20014;-76
2022/10/23 08:52:29;;;;;;;;;;;;;;;16.04;74.85;98130.53;7399185;19;20351;-76
2022/10/23 08:55:04;;;;;;;;;;;;;;;16.04;74.85;98127.84;7397710;19;19918;-77
2022/10/23 08:57:34;;;;;;;;;;;;;;;16.09;74.85;98122.72;7395908;19;19915;-77
2022/10/23 09:00:07;;;;;;;;;;;;;;;16.13;75.06;98122.13;7402529;19;19919;-77
2022/10/23 09:02:39;;;;;;;;;;;;;;;16.15;74.96;98117.44;7400066;19;19953;-76
2022/10/23 09:05:13;;;;;;;;;;;;;;;16.14;74.84;98110.47;7394756;19;19914;-77
2022/10/23 09:07:50;;;;;;;;;;;;;;;16.23;74.66;98116.44;7392386;19;19934;-76
2022/10/23 09:10:33;;;;;;;;;;;;;;;16.29;74.54;98114.81;7397334;19;19978;-77
2022/10/23 09:13:02;;;;;;;;;;;;;;;16.34;74.67;98113.19;7394298;19;19914;-77
2022/10/23 09:15:30;;;;;;;;;;;;;;;16.48;73.66;98118.59;7395452;19;19948;-76
2022/10/23 09:18:03;;;;;;;;;;;;;;;16.60;73.67;98120.50;7394743;19;19922;-76
2022/10/23 09:20:34;;;;;;;;;;;;;;;16.73;72.75;98126.91;7396091;19;19919;-77
2022/10/23 09:23:03;;;;;;;;;;;;;;;16.82;71.95;98123.03;7399377;19;20342;-78
2022/10/23 09:25:33;;;;;;;;;;;;;;;16.95;71.49;98128.41;7401817;19;19918;-78
2022/10/23 09:28:00;;;;;;;;;;;;;;;17.03;71.09;98125.56;7398909;19;19919;-78
2022/10/23 09:30:32;;;;;;;;;;;;;;;17.13;69.92;98124.34;7399050;19;19930;-77
2022/10/23 09:33:00;;;;;;;;;;;;;;;17.21;69.90;98116.13;7403450;19;19926;-78
2022/10/23 09:35:27;;;;;;;;;;;;;;;17.31;69.46;98116.53;7401019;19;19915;-78
2022/10/23 09:37:54;;;;;;;;;;;;;;;17.34;69.15;98122.28;7388574;19;19910;-78
2022/10/23 09:40:26;;;;;;;;;;;;;;;17.47;69.38;98116.13;7395577;19;19944;-78
2022/10/23 09:42:57;;;;;;;;;;;;;;;17.57;68.82;98117.59;7393801;19;19923;-78
2022/10/23 09:45:26;;;;;;;;;;;;;;;17.58;68.11;98111.19;7392302;19;19914;-79
2022/10/23 09:48:23;;;;;;;;;;;;;;;17.58;68.61;98103.97;7389348;19;19915;-78
2022/10/23 09:50:51;;;;;;;;;;;;;;;17.63;69.23;98103.38;7395901;19;20021;-79
2022/10/23 09:53:20;;;;;;;;;;;;;;;17.75;69.21;98101.72;7393506;19;19918;-78
2022/10/23 09:55:51;;;;;;;;;;;;;;;17.88;69.58;98101.72;7389631;19;20261;-76
2022/10/23 09:58:38;;;;;;;;;;;;;;;17.95;69.69;98104.38;7392586;19;19929;-78
2022/10/23 10:01:05;;;;;;;;;;;;;;;18.04;67.56;98088.94;7390506;19;19914;-77
2022/10/23 10:03:50;;;;;;;;;;;;;;;18.13;67.73;98075.06;7382427;19;19925;-76
2022/10/23 10:06:22;;;;;;;;;;;;;;;18.16;66.81;98071.97;7389833;19;19953;-76
2022/10/23 10:08:51;;;;;;;;;;;;;;;18.23;66.38;98082.66;7385581;19;19918;-76
2022/10/23 10:11:21;;;;;;;;;;;;;;;18.37;66.44;98083.44;7390083;19;19925;-77
2022/10/23 10:14:02;;;;;;;;;;;;;;;18.52;66.62;98091.19;7391058;19;20350;-77
2022/10/23 10:16:36;;;;;;;;;;;;;;;18.60;66.08;98099.00;7390339;19;19910;-76
2022/10/23 10:19:08;;;;;;;;;;;;;;;18.56;65.01;98093.25;7386235;19;20565;-77
2022/10/23 10:21:53;;;;;;;;;;;;;;;18.57;65.08;98102.09;7391646;19;19919;-77
2022/10/23 10:24:22;;;;;;;;;;;;;;;18.54;65.55;98094.50;7393288;19;19915;-78
2022/10/23 10:26:57;;;;;;;;;;;;;;;18.57;65.71;98094.06;7385687;19;19937;-77
2022/10/23 10:29:30;;;;;;;;;;;;;;;18.62;66.02;98086.22;7389069;19;20258;-77
2022/10/23 10:32:03;;;;;;;;;;;;;;;18.68;66.46;98085.34;7391858;19;20609;-76
2022/10/23 10:34:36;;;;;;;;;;;;;;;18.77;66.40;98081.41;7390174;19;20282;-77
2022/10/23 10:37:23;;;;;;;;;;;;;;;18.89;66.91;98083.41;7390236;19;19953;-77
2022/10/23 10:39:56;;;;;;;;;;;;;;;18.91;66.58;98070.63;7387690;19;19922;-78
2022/10/23 10:42:26;;;;;;;;;;;;;;;19.02;67.05;98068.03;7391412;19;20575;-77
2022/10/23 10:44:56;;;;;;;;;;;;;;;19.21;66.07;98065.44;7388653;19;19914;-76
2022/10/23 10:47:50;;;;;;;;;;;;;;;19.27;66.65;98051.97;7388252;19;19923;-77
2022/10/23 10:50:36;;;;;;;;;;;;;;;19.49;66.33;98041.66;7386907;19;20353;-77
2022/10/23 10:53:18;;;;;;;;;;;;;;;19.54;65.77;98016.84;7387234;19;19923;-77
2022/10/23 10:55:46;;;;;;;;;;;;;;;19.55;65.53;98021.16;7390178;19;19930;-77
2022/10/23 10:58:15;;;;;;;;;;;;;;;19.55;65.21;98031.91;7390118;19;20331;-77
2022/10/23 11:00:41;;;;;;;;;;;;;;;19.57;64.64;98031.69;7386756;19;19918;-77
2022/10/23 11:03:21;;;;;;;;;;;;;;;19.50;66.01;98037.91;7386693;19;19930;-77
2022/10/23 11:05:49;;;;;;;;;;;;;;;19.44;65.49;98048.72;7388595;19;19944;-76
2022/10/23 11:08:21;;;;;;;;;;;;;;;19.41;64.98;98059.91;7389885;19;20345;-77
2022/10/23 11:10:49;;;;;;;;;;;;;;;19.48;66.20;98047.22;7386658;19;19980;-77
2022/10/23 11:13:27;;;;;;;;;;;;;;;19.53;66.98;98040.16;7390023;19;20556;-77
2022/10/23 11:15:55;;;;;;;;;;;;;;;19.60;67.37;98036.59;7387266;19;20439;-77
2022/10/23 11:18:23;;;;;;;;;;;;;;;19.67;67.06;98037.41;7385618;19;19940;-77
2022/10/23 11:20:58;;;;;;;;;;;;;;;19.71;67.04;98031.34;7387083;19;19962;-77
2022/10/23 11:23:31;;;;;;;;;;;;;;;19.80;67.38;98023.00;7390166;19;20361;-77
2022/10/23 11:25:57;;;;;;;;;;;;;;;19.82;66.52;98013.66;7384170;19;19926;-78
2022/10/23 11:28:33;;;;;;;;;;;;;;;19.81;64.48;98003.19;7388132;19;19926;-77
2022/10/23 11:31:07;;;;;;;;;;;;;;;19.81;65.03;98003.19;7386283;19;19918;-77
2022/10/23 11:33:56;;;;;;;;;;;;;;;19.80;65.16;97998.84;7389665;19;20366;-77
2022/10/23 11:36:38;;;;;;;;;;;;;;;19.95;65.69;97991.22;7386545;19;19914;-77
2022/10/23 11:39:06;;;;;;;;;;;;;;;19.94;65.94;97981.53;7385382;19;19939;-77
2022/10/23 11:41:33;;;;;;;;;;;;;;;20.06;66.66;97985.09;7386416;19;19941;-76
2022/10/23 11:44:02;;;;;;;;;;;;;;;20.17;65.86;97978.16;7383530;19;19935;-76
2022/10/23 11:46:35;;;;;;;;;;;;;;;20.25;66.03;97972.47;7384984;19;19918;-76
2022/10/23 11:49:04;;;;;;;;;;;;;;;20.32;65.33;97969.66;7383943;19;20401;-77
2022/10/23 11:51:33;;;;;;;;;;;;;;;20.35;65.08;97963.84;7383871;19;19919;-77
2022/10/23 11:54:06;;;;;;;;;;;;;;;20.39;65.12;97963.16;7385043;19;19923;-77
2022/10/23 11:56:33;;;;;;;;;;;;;;;20.28;64.25;97972.00;7386747;19;19933;-76
2022/10/23 11:59:15;;;;;;;;;;;;;;;20.17;64.64;97964.72;7378159;19;19915;-76
2022/10/23 12:01:44;;;;;;;;;;;;;;;20.05;63.95;97967.34;7380821;19;19918;-77
2022/10/23 12:04:11;;;;;;;;;;;;;;;20.06;65.25;97957.41;7384611;19;19931;-76
2022/10/23 12:06:41;;;;;;;;;;;;;;;20.07;64.90;97953.69;7385425;19;20363;-77
2022/10/23 12:09:21;;;;;;;;;;;;;;;20.07;63.92;97957.19;7387340;19;20358;-78
2022/10/23 12:11:48;;;;;;;;;;;;;;;20.11;64.11;97962.94;7386784;19;19911;-76
2022/10/23 12:14:28;;;;;;;;;;;;;;;20.16;63.72;97955.00;7387865;19;19943;-77
2022/10/23 12:16:55;;;;;;;;;;;;;;;20.23;64.37;97941.50;7383433;19;20279;-77
2022/10/23 12:19:22;;;;;;;;;;;;;;;20.30;64.40;97936.84;7380683;19;19944;-77
2022/10/23 12:21:50;;;;;;;;;;;;;;;20.34;64.86;97938.84;7389551;19;19943;-77
2022/10/23 12:24:21;;;;;;;;;;;;;;;20.39;64.96;97944.34;7388620;19;19922;-77
2022/10/23 12:26:55;;;;;;;;;;;;;;;20.46;65.57;97935.34;7386932;19;19951;-78
2022/10/23 12:29:31;;;;;;;;;;;;;;;20.50;65.92;97931.19;7387724;19;19948;-77
2022/10/23 12:32:02;;;;;;;;;;;;;;;20.50;65.76;97934.69;7387001;19;19943;-77
2022/10/23 12:34:35;;;;;;;;;;;;;;;20.57;65.97;97942.69;7386172;19;19925;-77
2022/10/23 12:37:15;;;;;;;;;;;;;;;20.58;64.82;97930.88;7386376;19;19930;-78
2022/10/23 12:39:41;;;;;;;;;;;;;;;20.58;64.19;97929.00;7379861;19;19922;-78
2022/10/23 12:42:14;;;;;;;;;;;;;;;20.58;64.81;97929.00;7389203;19;20437;-76
2022/10/23 12:44:41;;;;;;;;;;;;;;;20.64;65.17;97921.88;7397780;19;19948;-77
2022/10/23 12:47:10;;;;;;;;;;;;;;;20.68;66.58;97917.69;7386813;19;19931;-78
2022/10/23 12:49:37;;;;;;;;;;;;;;;20.71;66.11;97919.09;7383259;19;19923;-77
2022/10/23 12:52:04;;;;;;;;;;;;;;;20.76;65.29;97911.16;7378173;19;19930;-78
2022/10/23 12:54:32;;;;;;;;;;;;;;;20.79;66.14;97914.19;7384359;19;19923;-78
2022/10/23 12:56:59;;;;;;;;;;;;;;;20.81;65.91;97903.22;7383372;19;19930;-77
2022/10/23 12:59:35;;;;;;;;;;;;;;;20.82;65.09;97907.53;7385965;19;19919;-77
2022/10/23 13:02:12;;;;;;;;;;;;;;;20.85;66.12;97912.44;7388576;19;19952;-78
2022/10/23 13:04:39;;;;;;;;;;;;;;;21.01;64.19;97894.78;7387425;19;20398;-76
2022/10/23 13:07:05;;;;;;;;;;;;;;;21.12;63.88;97888.59;7385423;19;20275;-77
2022/10/23 13:09:33;;;;;;;;;;;;;;;21.20;62.99;97896.31;7385951;19;19914;-78
2022/10/23 13:12:23;;;;;;;;;;;;;;;21.20;64.06;97890.09;7389973;19;19997;-77
2022/10/23 13:15:16;;;;;;;;;;;;;;;21.16;63.58;97888.94;7394346;19;19925;-78